Port Orange, Florida
Current Conditions -  °F | °C
As of 1:53 AM on Friday 28 Nov 2014 (Local Time) from KDAB Reporting Station
Clear Clear  
Wind Chill: 43°   Ceiling: Unl
Heat Index: 48°   Visibility: 10mi
Dew Point: 33°   Wind: 10mph
Humidity: 56%   Direction: 330°NNW
Pressure: 30.28"   Gusts: NA
Location:  29.13°N, 81.02°W
Report Text: KDAB 280653Z 33009KT 10SM CLR 09/01 A3028 RMK AO2 SLP254 T00890006
Loading
Personal Weather Stations






























Interactive Weather Map New forecast layout! Learn more

10-Day Weather Forecast

Advertisements
Track Severe Weather on mobile